Time;durP1;ratioP1;P1;durP2;ratioP2;P2;SDS_P1;SDS_P2;PMS_P1;PMS_P2;Temp;Humidity;BMP_temperature;BMP_pressure;BME280_temperature;BME280_humidity;BME280_pressure;Samples;Min_cycle;Max_cycle;Signal;HPM_P1;HPM_P2
2023/10/28 00:00:38;;;;;;;15.20;2.70;;;10.10;99.90;;;;;;5072080;28;20162;-57
2023/10/28 00:03:05;;;;;;;8.13;4.07;;;10.10;99.90;;;;;;5071118;28;20656;-57
2023/10/28 00:05:31;;;;;;;13.95;2.55;;;10.10;99.90;;;;;;5071707;28;20174;-57
2023/10/28 00:07:57;;;;;;;12.05;3.97;;;10.20;99.90;;;;;;5071825;28;20177;-56
2023/10/28 00:10:23;;;;;;;10.45;3.65;;;10.30;99.90;;;;;;5071783;28;20170;-56
2023/10/28 00:12:50;;;;;;;12.20;3.30;;;10.30;99.90;;;;;;5071458;28;20206;-54
2023/10/28 00:15:18;;;;;;;10.27;2.50;;;10.30;99.90;;;;;;5071463;28;20154;-57
2023/10/28 00:17:47;;;;;;;11.15;3.00;;;10.30;99.90;;;;;;5071718;28;20173;-56
2023/10/28 00:20:21;;;;;;;8.88;3.05;;;10.30;99.90;;;;;;5071457;28;20169;-55
2023/10/28 00:22:49;;;;;;;12.57;3.33;;;10.40;99.90;;;;;;5071625;28;20181;-57
2023/10/28 00:25:16;;;;;;;8.07;2.92;;;10.50;99.90;;;;;;5071127;28;20162;-54
2023/10/28 00:27:44;;;;;;;11.10;3.25;;;10.40;99.90;;;;;;5071062;28;20170;-50
2023/10/28 00:30:11;;;;;;;12.88;2.67;;;10.50;99.90;;;;;;5071369;28;20174;-50
2023/10/28 00:32:37;;;;;;;5.22;2.60;;;10.40;99.90;;;;;;5071761;28;20293;-50
2023/10/28 00:35:05;;;;;;;10.13;3.33;;;10.50;99.90;;;;;;5071403;28;20223;-52
2023/10/28 00:37:30;;;;;;;7.05;3.28;;;10.40;99.90;;;;;;5071233;28;20173;-52
2023/10/28 00:39:56;;;;;;;10.05;3.83;;;10.50;99.90;;;;;;5071105;28;20252;-51
2023/10/28 00:42:21;;;;;;;10.75;3.00;;;10.50;99.90;;;;;;5071171;28;20212;-51
2023/10/28 00:44:47;;;;;;;11.75;3.50;;;10.40;99.90;;;;;;5071226;28;20166;-50
2023/10/28 00:47:13;;;;;;;8.07;3.03;;;10.40;99.90;;;;;;5071083;28;20166;-53
2023/10/28 00:49:40;;;;;;;13.00;3.90;;;10.40;99.90;;;;;;5071562;28;20174;-52
2023/10/28 00:52:05;;;;;;;10.32;2.88;;;10.40;99.90;;;;;;5071542;28;20232;-53
2023/10/28 00:54:32;;;;;;;9.88;3.33;;;10.30;99.90;;;;;;5071117;28;20166;-51
2023/10/28 00:56:58;;;;;;;9.77;3.13;;;10.30;99.90;;;;;;5053207;28;20170;-53
2023/10/28 00:59:27;;;;;;;11.02;2.33;;;10.50;99.90;;;;;;5071078;28;20170;-52
2023/10/28 01:01:53;;;;;;;9.18;3.13;;;10.40;99.90;;;;;;5071254;28;20537;-52
2023/10/28 01:04:19;;;;;;;7.05;2.50;;;10.40;99.90;;;;;;5070972;28;20162;-50
2023/10/28 01:06:45;;;;;;;7.78;2.97;;;10.50;99.90;;;;;;5071060;28;20177;-49
2023/10/28 01:09:11;;;;;;;7.32;2.90;;;10.40;99.90;;;;;;5071031;28;20170;-52
2023/10/28 01:11:39;;;;;;;9.40;3.35;;;10.50;99.90;;;;;;5071348;28;20263;-52
2023/10/28 01:14:09;;;;;;;9.35;3.10;;;10.50;99.90;;;;;;5071379;28;20158;-51
2023/10/28 01:16:35;;;;;;;6.32;2.55;;;10.50;99.90;;;;;;5071365;28;20162;-52
2023/10/28 01:19:00;;;;;;;5.65;2.97;;;10.40;99.90;;;;;;5071120;28;20627;-50
2023/10/28 01:21:26;;;;;;;8.07;2.58;;;10.50;99.90;;;;;;5070795;28;20629;-50
2023/10/28 01:23:54;;;;;;;6.32;2.58;;;10.60;99.90;;;;;;5071120;28;20166;-50
2023/10/28 01:26:20;;;;;;;7.78;3.45;;;10.50;99.90;;;;;;5071049;28;20174;-51
2023/10/28 01:28:46;;;;;;;8.80;3.00;;;10.60;99.90;;;;;;5070806;28;20170;-50
2023/10/28 01:31:12;;;;;;;7.97;3.40;;;10.50;99.90;;;;;;5069482;28;20198;-52
2023/10/28 01:33:38;;;;;;;7.20;3.45;;;10.50;99.90;;;;;;5071201;28;20234;-52
2023/10/28 01:36:04;;;;;;;6.07;2.58;;;10.60;99.90;;;;;;5070715;28;20214;-51
2023/10/28 01:38:30;;;;;;;7.35;2.67;;;10.50;99.90;;;;;;5073602;28;20170;-54
2023/10/28 01:40:56;;;;;;;6.03;2.25;;;10.50;99.90;;;;;;5074290;28;20170;-56
2023/10/28 01:43:22;;;;;;;6.32;1.83;;;10.40;99.90;;;;;;5074473;28;20177;-56
2023/10/28 01:45:48;;;;;;;5.22;1.95;;;10.50;99.90;;;;;;5074295;28;20528;-56
2023/10/28 01:48:14;;;;;;;7.18;1.70;;;10.60;99.90;;;;;;5074058;28;20214;-57
2023/10/28 01:50:41;;;;;;;6.13;2.13;;;10.40;99.90;;;;;;5073957;28;20227;-53
2023/10/28 01:53:06;;;;;;;6.55;2.15;;;10.50;99.90;;;;;;5074495;28;20185;-56
2023/10/28 01:55:32;;;;;;;6.20;2.78;;;10.60;99.90;;;;;;5074253;28;20178;-57
2023/10/28 01:57:58;;;;;;;9.88;2.88;;;10.40;99.90;;;;;;5073935;28;20166;-52
2023/10/28 02:00:26;;;;;;;4.97;2.33;;;10.60;99.90;;;;;;5073954;28;20249;-51
2023/10/28 02:02:52;;;;;;;9.95;2.78;;;10.40;99.90;;;;;;5073893;28;20200;-52
2023/10/28 02:05:18;;;;;;;8.68;3.65;;;10.40;99.90;;;;;;5073791;28;20181;-52
2023/10/28 02:07:44;;;;;;;10.68;4.07;;;10.60;99.90;;;;;;5073997;28;20177;-50
2023/10/28 02:10:09;;;;;;;9.30;3.20;;;10.40;99.90;;;;;;5073715;28;20174;-50
2023/10/28 02:12:35;;;;;;;5.57;2.95;;;10.50;99.90;;;;;;5074142;28;20205;-55
2023/10/28 02:15:06;;;;;;;5.47;2.33;;;10.50;99.90;;;;;;5073696;28;20170;-57
2023/10/28 02:17:32;;;;;;;2.67;1.90;;;10.40;99.90;;;;;;5072377;28;20657;-56
2023/10/28 02:19:57;;;;;;;6.68;2.20;;;10.60;99.90;;;;;;5073595;28;20173;-57
2023/10/28 02:22:23;;;;;;;5.65;2.38;;;10.50;99.90;;;;;;5073781;28;20169;-57
2023/10/28 02:24:49;;;;;;;3.63;2.33;;;10.50;99.90;;;;;;5073495;28;20173;-57
2023/10/28 02:27:15;;;;;;;4.53;1.95;;;10.50;99.90;;;;;;5073473;28;20170;-57
2023/10/28 02:29:40;;;;;;;4.95;1.50;;;10.60;99.90;;;;;;5073316;28;20745;-57
2023/10/28 02:32:08;;;;;;;3.88;1.50;;;10.50;99.90;;;;;;5073730;28;20616;-57
2023/10/28 02:34:34;;;;;;;8.77;2.20;;;10.50;99.90;;;;;;5073619;28;20232;-58
2023/10/28 02:37:00;;;;;;;5.05;1.60;;;10.50;99.90;;;;;;5073519;28;20621;-57
2023/10/28 02:39:26;;;;;;;4.25;1.77;;;10.40;99.90;;;;;;5073142;28;20241;-58
2023/10/28 02:41:55;;;;;;;5.60;2.10;;;10.40;99.90;;;;;;5073401;28;20178;-57
2023/10/28 02:44:21;;;;;;;4.85;1.58;;;10.40;99.90;;;;;;5073346;28;20611;-58
2023/10/28 02:46:46;;;;;;;3.92;1.60;;;10.40;99.90;;;;;;5073293;28;20205;-58
2023/10/28 02:49:12;;;;;;;3.25;1.42;;;10.50;99.90;;;;;;5072097;28;20214;-57
2023/10/28 02:51:38;;;;;;;6.00;1.42;;;10.40;99.90;;;;;;5073321;28;20258;-57
2023/10/28 02:54:04;;;;;;;6.15;1.48;;;10.40;99.90;;;;;;5072880;28;20250;-57
2023/10/28 02:56:30;;;;;;;6.20;1.25;;;10.40;99.90;;;;;;5073073;28;20180;-56
2023/10/28 02:58:56;;;;;;;3.65;1.77;;;10.40;99.90;;;;;;5072740;28;20530;-57
2023/10/28 03:01:22;;;;;;;4.05;1.52;;;10.40;99.90;;;;;;5072556;28;20163;-57
2023/10/28 03:03:48;;;;;;;4.70;1.60;;;10.40;99.90;;;;;;5071780;28;20498;-57
2023/10/28 03:06:14;;;;;;;7.97;1.48;;;10.40;99.90;;;;;;5072868;28;20302;-58
2023/10/28 03:08:39;;;;;;;7.45;1.15;;;10.40;99.90;;;;;;5072606;28;20223;-58
2023/10/28 03:11:06;;;;;;;3.55;1.40;;;10.50;99.90;;;;;;5073021;28;20278;-58
2023/10/28 03:13:31;;;;;;;7.05;1.63;;;10.40;99.90;;;;;;5072464;28;20178;-57
2023/10/28 03:15:57;;;;;;;2.47;1.60;;;10.40;99.90;;;;;;5072502;28;20519;-55
2023/10/28 03:18:23;;;;;;;2.25;1.38;;;10.40;99.90;;;;;;5072385;28;20166;-58
2023/10/28 03:20:48;;;;;;;4.82;1.40;;;10.40;99.90;;;;;;5072410;28;20212;-56
2023/10/28 03:23:14;;;;;;;3.05;1.30;;;10.40;99.90;;;;;;5072317;28;20170;-57
2023/10/28 03:25:40;;;;;;;3.35;1.40;;;10.40;99.90;;;;;;5072463;28;20166;-57
2023/10/28 03:28:06;;;;;;;5.68;1.63;;;10.30;99.90;;;;;;5072672;28;20170;-58
2023/10/28 03:30:32;;;;;;;7.65;1.90;;;10.40;99.90;;;;;;5072367;28;20261;-56
2023/10/28 03:32:58;;;;;;;7.68;1.75;;;10.30;99.90;;;;;;5072000;28;20204;-58
2023/10/28 03:35:24;;;;;;;4.13;1.85;;;10.20;99.90;;;;;;5072033;28;20173;-57
2023/10/28 03:37:49;;;;;;;8.95;2.25;;;10.30;99.90;;;;;;5072271;28;20170;-58
2023/10/28 03:40:15;;;;;;;12.48;2.28;;;10.20;99.90;;;;;;5071978;28;20162;-56
2023/10/28 03:42:40;;;;;;;6.22;1.75;;;10.10;99.90;;;;;;5071930;28;20203;-57
2023/10/28 03:45:09;;;;;;;7.68;1.50;;;10.10;99.90;;;;;;5072337;28;20170;-56
2023/10/28 03:47:35;;;;;;;4.68;1.42;;;10.00;99.90;;;;;;5072071;28;20206;-56
2023/10/28 03:50:01;;;;;;;5.80;1.30;;;10.10;99.90;;;;;;5071794;28;20177;-51
2023/10/28 03:52:27;;;;;;;1.75;1.23;;;10.00;99.90;;;;;;5071724;28;20216;-56
2023/10/28 03:54:52;;;;;;;1.90;1.40;;;10.00;99.90;;;;;;5071751;28;20162;-57
2023/10/28 03:57:18;;;;;;;3.03;1.23;;;10.00;99.90;;;;;;5072143;28;20181;-49
2023/10/28 03:59:46;;;;;;;6.65;1.52;;;10.00;99.90;;;;;;5071992;28;20158;-50
2023/10/28 04:02:11;;;;;;;2.78;1.35;;;10.00;99.90;;;;;;5071918;28;20188;-50
2023/10/28 04:04:37;;;;;;;7.07;1.40;;;10.00;99.90;;;;;;5072234;28;20245;-50
2023/10/28 04:07:02;;;;;;;8.70;1.70;;;10.00;99.90;;;;;;5071772;28;20197;-50
2023/10/28 04:09:28;;;;;;;2.78;1.20;;;10.00;99.90;;;;;;5071661;28;20618;-50
2023/10/28 04:11:54;;;;;;;5.72;1.20;;;10.10;99.90;;;;;;5071432;28;20209;-50
2023/10/28 04:14:19;;;;;;;9.02;1.52;;;10.10;99.90;;;;;;5071694;28;20180;-49
2023/10/28 04:16:45;;;;;;;3.35;1.38;;;10.10;99.90;;;;;;5071789;28;20174;-50
2023/10/28 04:19:11;;;;;;;4.25;1.70;;;10.20;99.90;;;;;;5071395;28;20169;-50
2023/10/28 04:21:37;;;;;;;6.07;2.60;;;10.20;99.90;;;;;;5071817;28;20569;-50
2023/10/28 04:24:03;;;;;;;5.47;1.88;;;10.20;99.90;;;;;;5071320;28;20203;-51
2023/10/28 04:26:29;;;;;;;4.60;2.10;;;10.20;99.90;;;;;;5071310;28;20166;-51
2023/10/28 04:28:54;;;;;;;5.20;2.20;;;10.30;99.90;;;;;;5069988;28;20633;-52
2023/10/28 04:31:20;;;;;;;5.65;2.05;;;10.20;99.90;;;;;;5071223;28;20181;-52
2023/10/28 04:33:45;;;;;;;8.35;2.50;;;10.30;99.90;;;;;;5071581;28;20174;-52
2023/10/28 04:36:11;;;;;;;9.07;3.20;;;10.20;99.90;;;;;;5071209;28;20177;-50
2023/10/28 04:38:40;;;;;;;7.90;2.72;;;10.30;99.90;;;;;;5071704;28;20179;-51
2023/10/28 04:41:08;;;;;;;7.55;2.28;;;10.20;99.90;;;;;;5071557;28;20257;-50
2023/10/28 04:43:33;;;;;;;3.70;1.85;;;10.30;99.90;;;;;;5071937;28;20200;-52
2023/10/28 04:45:59;;;;;;;8.57;1.77;;;10.30;99.90;;;;;;5071226;28;20166;-51
2023/10/28 04:48:27;;;;;;;2.22;1.20;;;10.30;99.90;;;;;;5071016;28;20217;-53
2023/10/28 04:50:52;;;;;;;1.90;1.20;;;10.30;99.90;;;;;;5071082;28;20633;-50
2023/10/28 04:53:18;;;;;;;2.75;2.00;;;10.30;99.90;;;;;;5070623;28;20188;-50
2023/10/28 04:55:44;;;;;;;7.72;4.07;;;10.20;99.90;;;;;;5071203;28;20170;-50
2023/10/28 04:58:10;;;;;;;14.07;7.50;;;10.30;99.90;;;;;;5071073;28;20194;-52
2023/10/28 05:00:36;;;;;;;10.25;4.63;;;10.20;99.90;;;;;;5071588;28;20162;-52
2023/10/28 05:03:02;;;;;;;24.30;11.50;;;10.20;99.90;;;;;;5070755;28;20786;-49
2023/10/28 05:05:28;;;;;;;18.75;8.77;;;10.20;99.90;;;;;;5071083;28;20930;-55
2023/10/28 05:07:53;;;;;;;10.00;5.22;;;10.20;99.90;;;;;;5071227;28;20166;-52
2023/10/28 05:10:19;;;;;;;6.85;3.88;;;10.20;99.90;;;;;;5071021;28;20166;-50
2023/10/28 05:12:45;;;;;;;20.80;10.55;;;10.10;99.90;;;;;;5072497;28;20604;-51
2023/10/28 05:15:11;;;;;;;4.20;2.67;;;10.20;99.90;;;;;;5074824;28;20529;-52
2023/10/28 05:17:37;;;;;;;6.57;3.13;;;10.20;99.90;;;;;;5075397;28;20248;-51
2023/10/28 05:20:09;;;;;;;93.28;48.38;;;10.20;99.90;;;;;;5074669;28;20496;-49
2023/10/28 05:22:39;;;;;;;21.73;10.50;;;10.20;99.90;;;;;;5075025;28;20686;-52
2023/10/28 05:25:07;;;;;;;26.15;16.80;;;10.20;99.90;;;;;;5074908;28;20219;-51
2023/10/28 05:27:33;;;;;;;21.20;13.40;;;10.30;99.90;;;;;;5074810;28;20178;-49
2023/10/28 05:29:59;;;;;;;2.67;1.70;;;10.20;99.90;;;;;;5074416;28;20154;-54
2023/10/28 05:32:25;;;;;;;6.28;4.57;;;10.20;99.90;;;;;;5074297;28;20557;-49
2023/10/28 05:34:51;;;;;;;13.18;8.73;;;10.30;99.90;;;;;;5074302;28;20320;-50
2023/10/28 05:37:16;;;;;;;4.22;2.70;;;10.20;99.90;;;;;;5074368;28;20205;-49
2023/10/28 05:39:42;;;;;;;2.25;1.50;;;10.20;99.90;;;;;;5074288;28;20166;-49
2023/10/28 05:42:10;;;;;;;3.70;2.72;;;10.30;99.90;;;;;;5074929;28;20690;-50
2023/10/28 05:44:36;;;;;;;4.15;1.70;;;10.20;99.90;;;;;;5074976;28;20213;-52
2023/10/28 05:47:02;;;;;;;4.22;2.92;;;10.10;99.90;;;;;;5073906;28;20175;-48
2023/10/28 05:49:28;;;;;;;6.00;1.95;;;10.10;99.90;;;;;;5073909;28;20174;-55
2023/10/28 05:51:54;;;;;;;4.28;2.70;;;10.10;99.90;;;;;;5072703;28;20244;-57
2023/10/28 05:54:20;;;;;;;7.20;3.92;;;10.10;99.90;;;;;;5073980;28;20165;-57
2023/10/28 05:56:45;;;;;;;5.25;3.33;;;10.10;99.90;;;;;;5073918;28;20178;-57
2023/10/28 05:59:11;;;;;;;5.28;4.35;;;10.10;99.90;;;;;;5073907;28;20185;-57
2023/10/28 06:01:37;;;;;;;12.27;8.05;;;10.00;99.90;;;;;;5074112;28;20178;-57
2023/10/28 06:04:03;;;;;;;4.60;3.08;;;10.10;99.90;;;;;;5074430;28;20170;-55
2023/10/28 06:06:29;;;;;;;3.97;1.80;;;10.10;99.90;;;;;;5073727;28;20640;-50
2023/10/28 06:08:56;;;;;;;3.72;3.00;;;10.10;99.90;;;;;;5073693;28;20618;-49
2023/10/28 06:11:22;;;;;;;3.15;1.88;;;10.10;99.90;;;;;;5072504;28;20281;-49
2023/10/28 06:13:48;;;;;;;1.90;1.70;;;10.00;99.90;;;;;;5072654;28;20269;-51
2023/10/28 06:16:13;;;;;;;1.33;1.10;;;10.10;99.90;;;;;;5073253;28;20170;-50
2023/10/28 06:18:39;;;;;;;3.72;1.17;;;10.10;99.90;;;;;;5073587;28;20170;-48
2023/10/28 06:21:05;;;;;;;2.95;1.20;;;10.20;99.90;;;;;;5073995;28;20177;-49
2023/10/28 06:23:30;;;;;;;1.75;1.10;;;10.10;99.90;;;;;;5072787;28;20170;-53
2023/10/28 06:25:56;;;;;;;2.97;1.40;;;10.10;99.90;;;;;;5073337;28;20569;-56
2023/10/28 06:28:21;;;;;;;2.47;1.30;;;10.20;99.90;;;;;;5073481;28;20200;-55
2023/10/28 06:30:48;;;;;;;2.83;1.45;;;10.20;99.90;;;;;;5073430;28;20162;-56
2023/10/28 06:33:14;;;;;;;1.88;1.20;;;10.30;99.90;;;;;;5073343;28;20196;-52
2023/10/28 06:35:39;;;;;;;4.60;1.30;;;10.30;99.90;;;;;;5073315;28;20166;-58
2023/10/28 06:38:06;;;;;;;1.40;1.17;;;10.30;99.90;;;;;;5073623;28;20223;-61
2023/10/28 06:40:32;;;;;;;4.90;1.55;;;10.20;99.90;;;;;;5073116;28;20620;-58
2023/10/28 06:42:58;;;;;;;1.88;1.45;;;10.30;99.90;;;;;;5073446;28;20170;-56
2023/10/28 06:45:23;;;;;;;1.90;1.55;;;10.40;99.90;;;;;;5073053;28;20299;-55
2023/10/28 06:47:50;;;;;;;2.17;1.75;;;10.40;99.90;;;;;;5073023;28;20245;-62
2023/10/28 06:50:19;;;;;;;4.30;2.90;;;10.30;99.90;;;;;;5073241;28;20178;-59
2023/10/28 06:52:47;;;;;;;3.83;2.88;;;10.40;99.90;;;;;;5073068;28;20206;-59
2023/10/28 06:55:12;;;;;;;5.95;2.83;;;10.50;99.90;;;;;;5073106;28;20250;-60
2023/10/28 06:57:38;;;;;;;2.20;1.65;;;10.40;99.90;;;;;;5072875;28;20206;-53
2023/10/28 07:00:05;;;;;;;3.28;1.88;;;10.50;99.90;;;;;;5073212;28;20182;-55
2023/10/28 07:02:32;;;;;;;1.58;1.48;;;10.60;99.90;;;;;;5072797;28;20249;-53
2023/10/28 07:04:58;;;;;;;1.25;1.15;;;10.50;99.90;;;;;;5073010;28;20941;-60
2023/10/28 07:07:23;;;;;;;3.00;1.60;;;10.60;99.90;;;;;;5071420;28;20568;-55
2023/10/28 07:09:49;;;;;;;2.20;1.80;;;10.50;99.90;;;;;;5072488;28;20170;-60
2023/10/28 07:12:14;;;;;;;1.70;1.42;;;10.60;99.90;;;;;;5072438;28;20293;-58
2023/10/28 07:14:40;;;;;;;2.97;1.73;;;10.60;99.90;;;;;;5072508;28;20204;-60
2023/10/28 07:17:06;;;;;;;1.77;1.25;;;10.70;99.90;;;;;;5073159;28;20170;-55
2023/10/28 07:19:31;;;;;;;1.48;1.08;;;10.60;99.90;;;;;;5072606;28;20241;-55
2023/10/28 07:21:57;;;;;;;1.90;1.27;;;10.60;99.90;;;;;;5072108;28;20180;-55
2023/10/28 07:24:22;;;;;;;1.80;1.20;;;10.70;99.90;;;;;;5072053;28;20166;-56
2023/10/28 07:26:48;;;;;;;2.75;1.10;;;10.80;99.90;;;;;;5072262;28;20165;-59
2023/10/28 07:29:13;;;;;;;1.80;1.00;;;10.80;99.90;;;;;;5072237;28;20166;-53
2023/10/28 07:31:39;;;;;;;2.55;1.10;;;10.80;99.90;;;;;;5072271;28;20197;-55
2023/10/28 07:34:07;;;;;;;2.65;1.10;;;10.90;99.90;;;;;;5072547;28;20174;-57
2023/10/28 07:36:33;;;;;;;1.95;1.20;;;11.00;99.90;;;;;;5072301;28;20216;-56
2023/10/28 07:39:03;;;;;;;2.22;0.85;;;11.00;99.90;;;;;;5072352;28;20169;-55
2023/10/28 07:41:29;;;;;;;1.33;1.17;;;11.00;99.90;;;;;;5072299;28;20247;-54
2023/10/28 07:43:58;;;;;;;3.38;1.40;;;11.10;99.90;;;;;;5072183;28;20279;-58
2023/10/28 07:46:29;;;;;;;3.33;1.20;;;11.10;99.90;;;;;;5071950;28;20223;-53
2023/10/28 07:48:56;;;;;;;3.17;1.38;;;11.20;99.90;;;;;;5071630;28;20228;-52
2023/10/28 07:51:21;;;;;;;4.85;1.52;;;11.30;99.90;;;;;;5070487;28;20212;-54
2023/10/28 07:53:50;;;;;;;3.58;1.52;;;11.30;99.90;;;;;;5072043;28;20261;-52
2023/10/28 07:56:16;;;;;;;1.55;1.15;;;11.30;99.90;;;;;;5071834;28;20162;-53
2023/10/28 07:58:46;;;;;;;6.75;1.55;;;11.30;99.90;;;;;;5071793;28;20166;-52
2023/10/28 08:01:16;;;;;;;2.22;1.05;;;11.30;99.90;;;;;;5071849;28;20170;-52
2023/10/28 08:03:44;;;;;;;4.35;1.15;;;11.30;99.90;;;;;;5071688;28;20677;-57
2023/10/28 08:06:11;;;;;;;2.85;1.20;;;11.40;99.90;;;;;;5071652;28;20248;-58
2023/10/28 08:08:39;;;;;;;4.55;1.05;;;11.40;99.90;;;;;;5072300;28;20177;-58
2023/10/28 08:11:08;;;;;;;4.30;1.15;;;11.40;99.90;;;;;;5072168;28;20170;-58
2023/10/28 08:13:35;;;;;;;3.47;1.20;;;11.40;99.90;;;;;;5071980;28;20192;-57
2023/10/28 08:16:01;;;;;;;2.25;1.35;;;11.40;99.90;;;;;;5071774;28;20209;-61
2023/10/28 08:18:30;;;;;;;2.63;1.45;;;11.40;99.90;;;;;;5071744;28;20201;-56
2023/10/28 08:20:55;;;;;;;5.82;1.17;;;11.40;99.90;;;;;;5071426;28;20165;-55
2023/10/28 08:23:21;;;;;;;5.00;0.98;;;11.40;99.90;;;;;;5071433;28;20534;-60
2023/10/28 08:25:47;;;;;;;2.45;1.23;;;11.40;99.90;;;;;;5071468;28;20166;-60
2023/10/28 08:28:12;;;;;;;1.23;0.80;;;11.40;99.90;;;;;;5071448;28;20261;-62
2023/10/28 08:30:38;;;;;;;3.58;1.27;;;11.40;99.90;;;;;;5070065;28;20638;-56
2023/10/28 08:33:03;;;;;;;1.77;1.23;;;11.40;99.90;;;;;;5070500;28;20209;-61
2023/10/28 08:35:29;;;;;;;1.92;0.90;;;11.40;99.90;;;;;;5071655;28;20197;-58
2023/10/28 08:37:55;;;;;;;2.05;0.88;;;11.40;99.90;;;;;;5071320;28;20201;-59
2023/10/28 08:40:20;;;;;;;1.83;1.42;;;11.40;99.90;;;;;;5071344;28;20170;-61
2023/10/28 08:42:46;;;;;;;2.38;1.00;;;11.40;99.90;;;;;;5071287;28;20165;-62
2023/10/28 08:45:14;;;;;;;1.58;1.00;;;11.40;99.90;;;;;;5071354;28;20598;-59
2023/10/28 08:47:40;;;;;;;1.13;1.02;;;11.40;99.90;;;;;;5072691;28;20208;-61
2023/10/28 08:50:10;;;;;;;3.40;0.90;;;11.50;99.90;;;;;;5075629;28;20629;-58
2023/10/28 08:52:37;;;;;;;1.55;0.95;;;11.50;99.90;;;;;;5075577;28;20722;-61
2023/10/28 08:55:04;;;;;;;1.95;1.17;;;13.40;99.90;;;;;;5075874;28;20169;-56
2023/10/28 08:57:30;;;;;;;1.90;0.80;;;11.60;99.90;;;;;;5075168;28;20166;-61
2023/10/28 08:59:56;;;;;;;2.30;1.23;;;11.70;99.90;;;;;;5075371;28;20170;-56
2023/10/28 09:02:23;;;;;;;2.55;1.10;;;11.80;99.90;;;;;;5075251;28;20201;-59
2023/10/28 09:04:49;;;;;;;1.30;1.00;;;11.90;99.90;;;;;;5075066;28;20170;-62
2023/10/28 09:07:14;;;;;;;0.85;0.82;;;12.00;99.90;;;;;;5074951;28;20582;-55
2023/10/28 09:09:40;;;;;;;3.30;1.15;;;12.10;99.90;;;;;;5074933;28;20169;-61
2023/10/28 09:12:09;;;;;;;4.50;1.92;;;12.20;99.90;;;;;;5075126;28;20201;-62
2023/10/28 09:14:35;;;;;;;3.03;1.40;;;12.30;99.90;;;;;;5075163;28;20173;-61
2023/10/28 09:17:02;;;;;;;6.07;2.15;;;12.40;99.90;;;;;;5074706;28;20166;-61
2023/10/28 09:19:29;;;;;;;5.50;1.65;;;12.40;99.90;;;;;;5074784;28;20245;-61
2023/10/28 09:21:55;;;;;;;7.15;1.27;;;12.40;99.90;;;;;;5074647;28;20170;-59
2023/10/28 09:24:22;;;;;;;2.75;1.20;;;12.50;99.90;;;;;;5074628;28;20207;-60
2023/10/28 09:26:50;;;;;;;2.72;1.20;;;12.40;99.90;;;;;;5074788;28;20185;-60
2023/10/28 09:29:28;;;;;;;2.28;1.10;;;12.40;99.90;;;;;;5074741;28;20231;-60
2023/10/28 09:32:05;;;;;;;7.53;1.88;;;12.40;99.90;;;;;;5074420;28;20276;-62
2023/10/28 09:34:37;;;;;;;2.78;1.73;;;12.40;99.90;;;;;;5074443;28;20522;-62
2023/10/28 09:37:04;;;;;;;4.50;1.75;;;12.50;99.90;;;;;;5075027;28;20178;-62
2023/10/28 09:39:31;;;;;;;3.53;1.58;;;12.50;99.90;;;;;;5074625;28;20185;-61
2023/10/28 09:41:57;;;;;;;5.60;1.90;;;12.60;99.90;;;;;;5074195;28;20177;-58
2023/10/28 09:44:24;;;;;;;3.83;1.67;;;12.60;99.90;;;;;;5074315;28;20158;-62
2023/10/28 09:46:54;;;;;;;6.07;1.65;;;12.60;99.90;;;;;;5074179;28;20633;-61
2023/10/28 09:49:22;;;;;;;6.05;1.98;;;12.60;99.90;;;;;;5072715;28;20290;-61
2023/10/28 09:51:56;;;;;;;4.93;2.17;;;12.50;99.90;;;;;;5074005;28;20550;-62
2023/10/28 09:54:25;;;;;;;5.03;2.25;;;12.70;99.90;;;;;;5074131;28;20177;-61
2023/10/28 09:56:53;;;;;;;5.57;2.50;;;12.70;99.90;;;;;;5073978;28;20292;-60
2023/10/28 09:59:24;;;;;;;6.57;1.77;;;12.90;99.90;;;;;;5073694;28;20663;-52
2023/10/28 10:02:16;;;;;;;4.28;1.40;;;13.00;99.90;;;;;;5073948;28;20174;-55
2023/10/28 10:05:00;;;;;;;6.00;2.63;;;13.10;99.90;;;;;;5073892;28;20529;-62
2023/10/28 10:07:27;;;;;;;7.32;2.60;;;13.30;99.90;;;;;;5073824;28;20219;-53
2023/10/28 10:09:53;;;;;;;6.72;2.38;;;13.70;99.90;;;;;;5074071;28;20169;-61
2023/10/28 10:12:30;;;;;;;6.82;2.70;;;14.10;99.90;;;;;;5073702;28;20332;-56
2023/10/28 10:14:56;;;;;;;4.78;1.73;;;14.10;99.90;;;;;;5073609;28;20521;-62
2023/10/28 10:17:31;;;;;;;3.65;2.08;;;14.10;99.90;;;;;;5073700;28;20224;-52
2023/10/28 10:20:04;;;;;;;6.82;2.38;;;14.30;99.90;;;;;;5073629;28;20710;-55
2023/10/28 10:22:30;;;;;;;9.15;2.63;;;14.50;99.90;;;;;;5073571;28;20166;-53
2023/10/28 10:24:56;;;;;;;6.43;2.58;;;14.70;99.90;;;;;;5073773;28;20193;-53
2023/10/28 10:27:40;;;;;;;4.97;1.40;;;14.80;99.90;;;;;;5073539;28;20253;-53
2023/10/28 10:30:09;;;;;;;3.53;1.75;;;14.50;99.90;;;;;;5073640;28;20696;-60
2023/10/28 10:32:49;;;;;;;6.05;2.13;;;14.70;99.90;;;;;;5073648;28;20295;-61
2023/10/28 10:35:30;;;;;;;6.97;2.10;;;14.80;99.90;;;;;;5073264;28;20185;-60
2023/10/28 10:38:11;;;;;;;6.10;1.83;;;14.90;99.90;;;;;;5073268;28;20204;-61
2023/10/28 10:40:52;;;;;;;5.07;1.88;;;14.90;99.90;;;;;;5073712;28;20249;-56
2023/10/28 10:43:19;;;;;;;9.38;2.33;;;14.70;99.90;;;;;;5073357;28;20177;-56
2023/10/28 10:45:45;;;;;;;11.18;2.35;;;14.50;99.90;;;;;;5073306;28;20189;-54
2023/10/28 10:48:11;;;;;;;6.97;2.28;;;14.40;99.90;;;;;;5072938;28;20305;-53
2023/10/28 10:50:38;;;;;;;8.70;2.20;;;14.50;99.90;;;;;;5073071;28;20589;-55
2023/10/28 10:53:04;;;;;;;8.70;2.88;;;14.30;99.90;;;;;;5073528;28;20570;-55
2023/10/28 10:55:31;;;;;;;15.38;2.20;;;14.20;99.90;;;;;;5072893;28;20220;-53
2023/10/28 10:57:57;;;;;;;6.25;2.13;;;14.20;99.90;;;;;;5072971;28;20166;-56
2023/10/28 11:00:23;;;;;;;7.03;2.47;;;14.10;99.90;;;;;;5072822;28;20588;-61
2023/10/28 11:02:49;;;;;;;5.97;2.28;;;14.10;99.90;;;;;;5072698;28;20226;-61
2023/10/28 11:05:16;;;;;;;5.00;2.10;;;14.10;99.90;;;;;;5072682;28;20673;-61
2023/10/28 11:07:43;;;;;;;6.55;2.33;;;14.20;99.90;;;;;;5072615;28;20529;-59
2023/10/28 11:10:09;;;;;;;8.82;2.30;;;14.10;99.90;;;;;;5072257;28;20201;-60
2023/10/28 11:12:37;;;;;;;7.22;2.17;;;14.10;99.90;;;;;;5072942;28;20198;-61
2023/10/28 11:15:04;;;;;;;8.88;2.60;;;14.00;99.90;;;;;;5072917;28;20170;-61
2023/10/28 11:17:30;;;;;;;9.20;2.40;;;14.00;99.90;;;;;;5072456;28;20158;-61
2023/10/28 11:19:58;;;;;;;6.53;2.03;;;14.00;99.90;;;;;;5072626;28;20189;-60
2023/10/28 11:22:25;;;;;;;8.02;2.28;;;14.10;99.90;;;;;;5072636;28;20257;-60
2023/10/28 11:24:59;;;;;;;6.22;1.95;;;14.20;99.90;;;;;;5072429;28;20154;-60
2023/10/28 11:27:26;;;;;;;12.68;2.28;;;14.30;99.90;;;;;;5072185;28;20174;-61
2023/10/28 11:29:53;;;;;;;7.15;2.50;;;14.60;99.90;;;;;;5072249;28;20173;-61
2023/10/28 11:32:21;;;;;;;6.50;2.10;;;14.90;99.90;;;;;;5071926;28;20202;-60
2023/10/28 11:34:48;;;;;;;8.57;2.30;;;14.90;99.90;;;;;;5072129;28;20676;-59
2023/10/28 11:37:14;;;;;;;10.05;2.80;;;14.80;99.90;;;;;;5072158;28;20208;-60
2023/10/28 11:39:41;;;;;;;6.43;1.80;;;14.90;99.90;;;;;;5072105;28;20163;-60
2023/10/28 11:42:14;;;;;;;10.18;2.92;;;14.80;99.90;;;;;;5072583;28;20231;-59
2023/10/28 11:44:40;;;;;;;10.05;2.15;;;14.60;99.90;;;;;;5071918;28;20192;-61
2023/10/28 11:47:06;;;;;;;7.05;2.20;;;14.50;99.90;;;;;;5072368;28;20170;-60
2023/10/28 11:49:33;;;;;;;12.80;2.20;;;14.50;99.90;;;;;;5072275;28;20181;-57
2023/10/28 11:51:59;;;;;;;9.85;2.65;;;14.50;99.90;;;;;;5071809;28;20205;-60
2023/10/28 11:54:25;;;;;;;10.10;2.83;;;14.40;99.90;;;;;;5072003;28;20207;-58
2023/10/28 11:56:51;;;;;;;10.23;3.20;;;14.50;99.90;;;;;;5071776;28;20281;-58
2023/10/28 11:59:16;;;;;;;10.13;2.92;;;14.60;99.90;;;;;;5071915;28;20170;-55
2023/10/28 12:01:42;;;;;;;9.40;3.70;;;14.70;99.90;;;;;;5071985;28;20165;-59
2023/10/28 12:04:08;;;;;;;12.38;2.92;;;14.70;99.90;;;;;;5071729;28;20174;-56
2023/10/28 12:06:34;;;;;;;10.23;2.35;;;14.80;99.90;;;;;;5072042;28;20162;-58
2023/10/28 12:09:00;;;;;;;10.88;4.95;;;15.00;99.90;;;;;;5071548;28;20248;-60
2023/10/28 12:11:27;;;;;;;10.57;3.10;;;15.20;99.90;;;;;;5071682;28;20547;-60
2023/10/28 12:13:55;;;;;;;9.82;2.47;;;15.20;99.90;;;;;;5071785;28;20178;-59
2023/10/28 12:16:21;;;;;;;9.23;2.40;;;15.30;99.90;;;;;;5071467;28;20647;-56
2023/10/28 12:18:47;;;;;;;8.55;2.90;;;15.10;99.90;;;;;;5071809;28;20174;-58
2023/10/28 12:21:15;;;;;;;6.60;1.88;;;15.10;99.90;;;;;;5070985;28;20639;-61
2023/10/28 12:23:42;;;;;;;4.85;1.98;;;15.10;99.90;;;;;;5070901;28;20174;-58
2023/10/28 12:26:08;;;;;;;6.25;2.10;;;15.10;99.90;;;;;;5071266;28;20199;-60
2023/10/28 12:28:34;;;;;;;6.32;2.10;;;15.00;99.90;;;;;;5071850;28;20170;-61
2023/10/28 12:31:01;;;;;;;6.05;2.40;;;14.90;99.90;;;;;;5071351;28;20706;-61
2023/10/28 12:33:27;;;;;;;5.45;2.25;;;14.90;99.90;;;;;;5071212;28;20998;-61
2023/10/28 12:35:52;;;;;;;6.32;2.13;;;15.00;99.90;;;;;;5071598;28;20259;-61
2023/10/28 12:38:18;;;;;;;6.70;2.20;;;15.00;99.90;;;;;;5071336;28;20162;-61
2023/10/28 12:40:43;;;;;;;6.60;2.60;;;14.80;99.90;;;;;;5071299;28;20633;-61
2023/10/28 12:43:09;;;;;;;8.02;2.75;;;14.70;99.90;;;;;;5071284;28;20170;-61